createdAt,value
2018-01-03T00:00:47.772Z,1.77
2018-01-03T00:03:16.108Z,1.50
2018-01-03T00:05:44.426Z,1.20
2018-01-03T00:08:13.455Z,3.80
2018-01-03T00:10:41.688Z,3.27
2018-01-03T00:13:09.936Z,1.53
2018-01-03T00:15:38.204Z,1.23
2018-01-03T00:18:06.438Z,0.80
2018-01-03T00:20:34.734Z,1.10
2018-01-03T00:23:03.004Z,1.30
2018-01-03T00:25:31.226Z,1.07
2018-01-03T00:28:00.239Z,0.90
2018-01-03T00:30:28.639Z,0.70
2018-01-03T00:32:56.927Z,0.70
2018-01-03T00:35:25.166Z,0.70
2018-01-03T00:37:54.199Z,1.10
2018-01-03T00:40:22.479Z,0.80
2018-01-03T00:42:50.714Z,0.80
2018-01-03T00:45:19.775Z,1.43
2018-01-03T00:47:48.054Z,0.87
2018-01-03T00:50:16.351Z,0.97
2018-01-03T00:52:44.610Z,3.57
2018-01-03T00:55:13.096Z,1.70
2018-01-03T00:57:41.374Z,2.70
2018-01-03T01:00:09.627Z,5.00
2018-01-03T01:02:37.945Z,1.30
2018-01-03T01:05:06.211Z,3.50
2018-01-03T01:07:34.458Z,2.37
2018-01-03T01:10:02.720Z,2.17
2018-01-03T01:12:31.009Z,3.00
2018-01-03T01:14:59.275Z,1.50
2018-01-03T01:17:28.303Z,2.10
2018-01-03T01:19:56.536Z,3.27
2018-01-03T01:22:24.781Z,2.50
2018-01-03T01:24:53.034Z,1.60
2018-01-03T01:27:21.277Z,10.80
2018-01-03T01:29:49.615Z,3.43
2018-01-03T01:32:18.814Z,4.73
2018-01-03T01:34:47.141Z,6.30
2018-01-03T01:37:15.386Z,6.13
2018-01-03T01:39:44.472Z,1.90
2018-01-03T01:42:13.468Z,2.27
2018-01-03T01:44:42.691Z,5.13
2018-01-03T01:47:10.923Z,1.73
2018-01-03T01:49:39.195Z,3.47
2018-01-03T01:52:07.548Z,2.80
2018-01-03T01:54:35.801Z,1.97
2018-01-03T01:57:04.089Z,2.13
2018-01-03T01:59:32.313Z,1.57
2018-01-03T02:02:00.599Z,2.27
2018-01-03T02:04:29.016Z,2.00
2018-01-03T02:06:57.311Z,1.03
2018-01-03T02:09:25.614Z,1.50
2018-01-03T02:11:53.810Z,1.37
2018-01-03T02:14:22.076Z,3.60
2018-01-03T02:16:51.142Z,3.03
2018-01-03T02:19:20.262Z,1.57
2018-01-03T02:21:48.517Z,3.07
2018-01-03T02:24:17.351Z,4.10
2018-01-03T02:29:37.621Z,2.30
2018-01-03T02:32:05.971Z,2.50
2018-01-03T02:34:34.993Z,1.27
2018-01-03T02:37:03.232Z,1.30
2018-01-03T02:39:32.264Z,2.10
2018-01-03T02:42:00.561Z,2.40
2018-01-03T02:44:28.828Z,1.10
2018-01-03T02:46:57.105Z,1.23
2018-01-03T02:49:25.450Z,0.90
2018-01-03T02:51:53.715Z,1.80
2018-01-03T02:54:22.725Z,0.90
2018-01-03T02:56:51.710Z,3.90
2018-01-03T02:59:19.961Z,1.20
2018-01-03T03:01:48.230Z,2.10
2018-01-03T03:04:16.490Z,1.63
2018-01-03T03:06:44.768Z,3.13
2018-01-03T03:09:13.014Z,1.10
2018-01-03T03:11:41.290Z,1.67
2018-01-03T03:14:09.553Z,1.00
2018-01-03T03:16:37.814Z,1.43
2018-01-03T03:19:06.891Z,1.60
2018-01-03T03:21:35.106Z,1.30
2018-01-03T03:24:03.374Z,1.10
2018-01-03T03:26:32.402Z,2.07
2018-01-03T03:29:00.684Z,2.53
2018-01-03T03:31:28.982Z,0.80
2018-01-03T03:33:57.261Z,0.70
2018-01-03T03:36:25.491Z,0.60
2018-01-03T03:38:55.254Z,1.50
2018-01-03T03:41:23.494Z,0.60
2018-01-03T03:43:51.745Z,3.83
2018-01-03T03:46:20.765Z,0.70
2018-01-03T03:48:48.969Z,0.97
2018-01-03T03:51:17.245Z,0.90
2018-01-03T03:53:45.529Z,0.60
2018-01-03T03:56:13.771Z,1.27
2018-01-03T03:58:42.006Z,1.73
2018-01-03T04:01:10.997Z,0.60
2018-01-03T04:03:40.125Z,0.87
2018-01-03T04:06:08.390Z,0.60
2018-01-03T04:08:37.381Z,0.70
2018-01-03T04:11:05.654Z,1.20
2018-01-03T04:13:34.745Z,0.80
2018-01-03T04:16:02.970Z,3.73
2018-01-03T04:18:31.216Z,0.67
2018-01-03T04:21:00.222Z,1.00
2018-01-03T04:23:28.491Z,2.23
2018-01-03T04:25:56.755Z,0.60
2018-01-03T04:28:24.982Z,1.73
2018-01-03T04:30:53.259Z,2.80
2018-01-03T04:33:21.527Z,0.80
2018-01-03T04:35:49.761Z,0.70
2018-01-03T04:38:18.794Z,0.70
2018-01-03T04:40:47.046Z,0.60
2018-01-03T04:43:15.302Z,6.53
2018-01-03T04:45:43.535Z,1.33
2018-01-03T04:48:11.806Z,0.90
2018-01-03T04:50:40.042Z,7.50
2018-01-03T04:53:09.055Z,2.20
2018-01-03T04:55:37.292Z,0.77
2018-01-03T04:58:05.550Z,3.70
2018-01-03T05:00:33.861Z,0.80
2018-01-03T05:03:02.881Z,6.50
2018-01-03T05:05:31.162Z,2.70
2018-01-03T05:08:00.134Z,8.17
2018-01-03T05:10:29.166Z,1.87
2018-01-03T05:12:57.419Z,0.87
2018-01-03T05:15:26.402Z,0.70
2018-01-03T05:17:55.432Z,4.23
2018-01-03T05:20:23.686Z,1.10
2018-01-03T05:22:52.797Z,12.93
2018-01-03T05:25:21.041Z,3.23
2018-01-03T05:27:50.069Z,1.70
2018-01-03T05:30:18.298Z,1.97
2018-01-03T05:32:47.341Z,2.60
2018-01-03T05:35:16.313Z,5.37
2018-01-03T05:37:45.330Z,2.27
2018-01-03T05:40:13.568Z,6.90
2018-01-03T05:42:43.146Z,3.40
2018-01-03T05:45:11.418Z,2.00
2018-01-03T05:47:39.706Z,6.93
2018-01-03T05:50:07.972Z,1.67
2018-01-03T05:52:36.239Z,1.07
2018-01-03T05:55:04.454Z,5.30
2018-01-03T05:57:32.739Z,6.17
2018-01-03T06:00:02.095Z,3.50
2018-01-03T06:02:30.367Z,1.17
2018-01-03T06:04:58.646Z,1.83
2018-01-03T06:07:26.946Z,1.40
2018-01-03T06:09:55.216Z,1.37
2018-01-03T06:12:23.457Z,2.83
2018-01-03T06:14:51.761Z,2.30
2018-01-03T06:17:19.988Z,3.57
2018-01-03T06:19:49.013Z,10.53
2018-01-03T06:22:17.261Z,5.13
2018-01-03T06:24:46.333Z,4.23
2018-01-03T06:27:14.719Z,3.30
2018-01-03T06:29:42.997Z,8.17
2018-01-03T06:32:11.255Z,4.27
2018-01-03T06:34:39.481Z,3.30
2018-01-03T06:37:07.738Z,7.07
2018-01-03T06:39:36.012Z,1.87
2018-01-03T06:42:04.241Z,6.77
2018-01-03T06:44:32.488Z,10.20
2018-01-03T06:47:00.726Z,1.47
2018-01-03T06:49:29.020Z,5.67
2018-01-03T06:51:57.245Z,7.87
2018-01-03T06:54:25.542Z,5.93
2018-01-03T06:56:53.777Z,5.67
2018-01-03T06:59:22.075Z,13.60
2018-01-03T07:01:50.329Z,7.80
2018-01-03T07:04:19.351Z,7.77
2018-01-03T07:06:47.603Z,10.30
2018-01-03T07:09:15.894Z,9.67
2018-01-03T07:11:44.193Z,11.43
2018-01-03T07:14:12.466Z,5.23
2018-01-03T07:16:40.758Z,3.17
2018-01-03T07:19:09.034Z,22.63
2018-01-03T07:21:37.313Z,8.23
2018-01-03T07:24:05.598Z,6.27
2018-01-03T07:26:33.852Z,14.27
2018-01-03T07:29:02.116Z,9.37
2018-01-03T07:31:30.350Z,20.00
2018-01-03T07:33:59.395Z,10.97
2018-01-03T07:36:27.649Z,13.37
2018-01-03T07:38:56.695Z,10.00
2018-01-03T07:41:24.955Z,17.73
2018-01-03T07:43:53.219Z,16.87
2018-01-03T07:46:22.006Z,19.67
2018-01-03T07:48:50.255Z,7.17
2018-01-03T07:51:18.576Z,10.43
2018-01-03T07:53:46.844Z,14.87
2018-01-03T07:56:15.133Z,29.97
2018-01-03T07:58:43.373Z,9.47
2018-01-03T08:01:12.412Z,13.17
2018-01-03T08:03:40.668Z,17.17
2018-01-03T08:06:08.928Z,8.80
2018-01-03T08:08:37.180Z,6.33
2018-01-03T08:11:05.505Z,4.00
2018-01-03T08:13:33.774Z,5.97
2018-01-03T08:16:02.066Z,5.77
2018-01-03T08:18:30.336Z,4.07
2018-01-03T08:20:58.589Z,18.70
2018-01-03T08:23:26.849Z,6.63
2018-01-03T08:25:55.129Z,3.93
2018-01-03T08:28:24.165Z,12.33
2018-01-03T08:30:52.452Z,3.00
2018-01-03T08:33:20.686Z,9.10
2018-01-03T08:35:49.722Z,4.50
2018-01-03T08:38:17.964Z,3.97
2018-01-03T08:40:46.982Z,12.67
2018-01-03T08:43:15.231Z,2.27
2018-01-03T08:45:43.458Z,7.67
2018-01-03T08:48:11.718Z,10.13
2018-01-03T08:50:39.968Z,5.50
2018-01-03T08:53:09.001Z,4.93
2018-01-03T08:55:37.261Z,6.37
2018-01-03T08:58:05.531Z,5.90
2018-01-03T09:00:33.783Z,12.90
2018-01-03T09:03:02.826Z,12.53
2018-01-03T09:05:31.070Z,12.77
2018-01-03T09:07:59.345Z,9.93
2018-01-03T09:10:28.360Z,10.47
2018-01-03T09:12:56.656Z,15.63
2018-01-03T09:15:24.915Z,3.27
2018-01-03T09:17:53.180Z,13.30
2018-01-03T09:20:21.452Z,11.43
2018-01-03T09:22:50.578Z,9.00
2018-01-03T09:25:18.882Z,23.60
2018-01-03T09:27:47.167Z,15.33
2018-01-03T09:30:15.423Z,8.90
2018-01-03T09:32:43.738Z,12.10
2018-01-03T09:35:11.974Z,18.57
2018-01-03T09:37:40.230Z,33.70
2018-01-03T09:40:08.556Z,21.20
2018-01-03T09:42:36.808Z,16.07
2018-01-03T09:45:05.082Z,11.17
2018-01-03T09:47:33.330Z,37.87
2018-01-03T09:50:01.611Z,30.77
2018-01-03T09:52:29.913Z,14.10
2018-01-03T09:54:58.204Z,12.00
2018-01-03T09:57:27.278Z,17.03
2018-01-03T09:59:55.519Z,15.80
2018-01-03T10:02:24.546Z,16.70
2018-01-03T10:04:52.814Z,24.50
2018-01-03T10:07:21.090Z,16.63
2018-01-03T10:09:49.340Z,16.27
2018-01-03T10:12:17.640Z,10.13
2018-01-03T10:14:45.902Z,38.43
2018-01-03T10:17:14.940Z,17.33
2018-01-03T10:19:43.194Z,18.40
2018-01-03T10:22:12.233Z,26.27
2018-01-03T10:24:41.066Z,14.20
2018-01-03T10:27:09.450Z,15.23
2018-01-03T10:29:37.743Z,24.33
2018-01-03T10:32:06.354Z,29.23
2018-01-03T10:34:34.594Z,15.80
2018-01-03T10:37:02.857Z,15.70
2018-01-03T10:39:31.130Z,15.33
2018-01-03T10:41:59.402Z,29.13
2018-01-03T10:44:27.617Z,11.67
2018-01-03T10:46:55.991Z,18.10
2018-01-03T10:49:24.362Z,17.47
2018-01-03T10:51:52.645Z,20.27
2018-01-03T10:54:20.897Z,21.27
2018-01-03T10:56:49.184Z,28.33
2018-01-03T10:59:18.209Z,16.07
2018-01-03T11:01:46.507Z,14.60
2018-01-03T11:04:14.791Z,23.13
2018-01-03T11:06:43.047Z,18.50
2018-01-03T11:09:11.338Z,16.80
2018-01-03T11:11:39.591Z,10.53
2018-01-03T11:14:07.865Z,33.50
2018-01-03T11:16:37.021Z,20.23
2018-01-03T11:19:05.279Z,28.80
2018-01-03T11:21:33.589Z,39.00
2018-01-03T11:24:02.680Z,39.80
2018-01-03T11:26:30.945Z,14.73
2018-01-03T11:28:59.960Z,19.80
2018-01-03T11:31:28.973Z,28.53
2018-01-03T11:33:57.245Z,25.93
2018-01-03T11:36:25.515Z,15.80
2018-01-03T11:38:53.779Z,16.67
2018-01-03T11:41:22.044Z,27.33
2018-01-03T11:43:50.314Z,19.30
2018-01-03T11:46:19.392Z,25.27
2018-01-03T11:48:47.696Z,15.47
2018-01-03T11:51:16.089Z,19.43
2018-01-03T11:53:44.458Z,17.60
2018-01-03T11:56:12.704Z,16.13
2018-01-03T11:58:41.005Z,17.00
2018-01-03T12:01:09.225Z,35.67
2018-01-03T12:03:37.528Z,15.50
2018-01-03T12:06:05.848Z,20.30
2018-01-03T12:08:34.154Z,13.33
2018-01-03T12:11:03.215Z,22.30
2018-01-03T12:13:31.562Z,11.03
2018-01-03T12:15:59.864Z,15.37
2018-01-03T12:18:28.130Z,17.20
2018-01-03T12:20:56.398Z,12.60
2018-01-03T12:23:24.732Z,18.20
2018-01-03T12:25:52.983Z,26.00
2018-01-03T12:28:21.250Z,15.40
2018-01-03T12:30:49.489Z,14.07
2018-01-03T12:33:17.783Z,10.73
2018-01-03T12:35:46.040Z,13.93
2018-01-03T12:38:14.320Z,8.47
2018-01-03T12:40:42.588Z,12.40
2018-01-03T12:43:11.603Z,16.70
2018-01-03T12:45:39.947Z,14.47
2018-01-03T12:48:08.972Z,14.80
2018-01-03T12:50:37.262Z,14.93
2018-01-03T12:53:05.526Z,18.87
2018-01-03T12:55:33.796Z,7.93
2018-01-03T12:58:02.050Z,12.60
2018-01-03T13:00:31.074Z,14.90
2018-01-03T13:02:59.361Z,27.07
2018-01-03T13:05:27.585Z,8.87
2018-01-03T13:07:55.860Z,12.57
2018-01-03T13:10:24.131Z,11.00
2018-01-03T13:12:52.402Z,14.83
2018-01-03T13:15:21.052Z,11.30
2018-01-03T13:17:49.335Z,9.53
2018-01-03T13:20:17.609Z,7.77
2018-01-03T13:22:45.856Z,9.57
2018-01-03T13:25:14.862Z,12.83
2018-01-03T13:27:43.949Z,17.47
2018-01-03T13:30:12.158Z,18.33
2018-01-03T13:32:40.409Z,12.60
2018-01-03T13:35:08.721Z,12.43
2018-01-03T13:37:36.985Z,6.63
2018-01-03T13:40:05.273Z,6.90
2018-01-03T13:42:33.558Z,9.00
2018-01-03T13:45:01.799Z,4.23
2018-01-03T13:47:30.097Z,18.00
2018-01-03T13:49:58.328Z,14.80
2018-01-03T13:52:27.355Z,12.63
2018-01-03T13:54:55.632Z,18.17
2018-01-03T13:57:23.862Z,17.53
2018-01-03T13:59:52.136Z,10.03
2018-01-03T14:02:21.543Z,13.73
2018-01-03T14:04:49.772Z,11.77
2018-01-03T14:07:18.027Z,15.43
2018-01-03T14:09:47.061Z,15.73
2018-01-03T14:12:15.321Z,7.83
2018-01-03T14:14:43.549Z,12.67
2018-01-03T14:17:12.602Z,5.00
2018-01-03T14:19:40.861Z,12.10
2018-01-03T14:22:09.115Z,13.07
2018-01-03T14:24:38.142Z,12.17
2018-01-03T14:27:06.394Z,8.57
2018-01-03T14:29:35.439Z,9.77
2018-01-03T14:32:03.705Z,5.03
2018-01-03T14:34:31.963Z,5.47
2018-01-03T14:37:00.228Z,19.33
2018-01-03T14:39:28.508Z,18.80
2018-01-03T14:41:56.783Z,22.47
2018-01-03T14:44:25.810Z,7.83
2018-01-03T14:46:54.060Z,6.70
2018-01-03T14:49:22.313Z,17.13
2018-01-03T14:51:50.615Z,24.80
2018-01-03T14:54:18.904Z,11.37
2018-01-03T14:56:47.188Z,16.67
2018-01-03T14:59:15.444Z,8.87
2018-01-03T15:01:43.718Z,16.33
2018-01-03T15:04:12.776Z,6.50
2018-01-03T15:06:41.046Z,5.10
2018-01-03T15:09:09.298Z,11.47
2018-01-03T15:11:38.031Z,7.27
2018-01-03T15:14:06.287Z,8.70
2018-01-03T15:16:34.577Z,22.27
2018-01-03T15:19:02.864Z,8.27
2018-01-03T15:21:31.111Z,9.90
2018-01-03T15:23:59.365Z,13.30
2018-01-03T15:26:27.715Z,18.27
2018-01-03T15:28:56.757Z,17.23
2018-01-03T15:31:25.014Z,10.07
2018-01-03T15:33:53.317Z,21.70
2018-01-03T15:36:21.599Z,13.60
2018-01-03T15:38:49.848Z,14.60
2018-01-03T15:41:18.123Z,6.90
2018-01-03T15:43:46.423Z,12.03
2018-01-03T15:46:14.668Z,14.53
2018-01-03T15:48:43.750Z,13.60
2018-01-03T15:51:12.004Z,20.90
2018-01-03T15:53:40.254Z,21.93
2018-01-03T15:56:08.541Z,23.93
2018-01-03T15:58:36.812Z,12.20
2018-01-03T16:01:05.095Z,16.57
2018-01-03T16:03:33.392Z,26.50
2018-01-03T16:06:01.867Z,16.73
2018-01-03T16:08:30.129Z,17.10
2018-01-03T16:10:58.735Z,15.03
2018-01-03T16:13:26.971Z,14.10
2018-01-03T16:15:55.246Z,10.40
2018-01-03T16:18:23.518Z,15.57
2018-01-03T16:20:51.824Z,25.07
2018-01-03T16:23:20.068Z,18.23
2018-01-03T16:25:48.333Z,21.00
2018-01-03T16:28:16.668Z,15.43
2018-01-03T16:30:44.913Z,12.93
2018-01-03T16:33:13.206Z,15.10
2018-01-03T16:35:41.487Z,18.93
2018-01-03T16:38:09.750Z,24.97
2018-01-03T16:40:38.041Z,27.47
2018-01-03T16:43:06.316Z,24.33
2018-01-03T16:45:34.570Z,18.23
2018-01-03T16:48:02.849Z,29.27
2018-01-03T16:50:31.138Z,14.63
2018-01-03T16:53:03.245Z,18.87
2018-01-03T16:55:31.521Z,17.73
2018-01-03T16:57:59.791Z,21.53
2018-01-03T17:00:28.047Z,15.23
2018-01-03T17:02:56.350Z,26.73
2018-01-03T17:05:24.668Z,14.37
2018-01-03T17:07:53.737Z,16.90
2018-01-03T17:10:21.965Z,21.20
2018-01-03T17:12:50.264Z,30.33
2018-01-03T17:15:18.524Z,14.33
2018-01-03T17:17:46.770Z,14.33
2018-01-03T17:20:15.043Z,26.03
2018-01-03T17:22:43.559Z,19.60
2018-01-03T17:25:11.885Z,14.50
2018-01-03T17:27:41.781Z,20.60
2018-01-03T17:30:10.060Z,26.43
2018-01-03T17:32:38.275Z,22.67
2018-01-03T17:35:07.341Z,22.63
2018-01-03T17:37:37.108Z,29.70
2018-01-03T17:40:05.376Z,43.27
2018-01-03T17:42:33.632Z,28.83
2018-01-03T17:45:02.667Z,17.90
2018-01-03T17:47:30.943Z,29.67
2018-01-03T17:49:59.360Z,30.73
2018-01-03T17:52:27.603Z,36.97
2018-01-03T17:54:56.007Z,19.90
2018-01-03T17:57:24.318Z,28.13
2018-01-03T17:59:52.588Z,26.97
2018-01-03T18:02:21.606Z,28.97
2018-01-03T18:04:49.886Z,17.53
2018-01-03T18:07:18.232Z,24.63
2018-01-03T18:09:46.460Z,47.60
2018-01-03T18:12:14.753Z,36.87
2018-01-03T18:14:43.096Z,29.97
2018-01-03T18:17:11.393Z,25.63
2018-01-03T18:19:39.689Z,27.50
2018-01-03T18:22:07.969Z,33.37
2018-01-03T18:24:36.257Z,27.90
2018-01-03T18:27:04.514Z,28.20
2018-01-03T18:29:32.815Z,31.90
2018-01-03T18:32:01.074Z,33.73
2018-01-03T18:34:29.369Z,14.63
2018-01-03T18:36:57.692Z,32.27
2018-01-03T18:39:26.715Z,26.50
2018-01-03T18:41:55.005Z,29.80
2018-01-03T18:44:23.303Z,31.67
2018-01-03T18:46:51.586Z,23.23
2018-01-03T18:49:20.915Z,32.67
2018-01-03T18:51:49.976Z,28.90
2018-01-03T18:54:18.298Z,49.37
2018-01-03T18:56:47.330Z,23.03
2018-01-03T18:59:15.936Z,26.13
2018-01-03T19:01:44.440Z,22.10
2018-01-03T19:04:12.776Z,34.83
2018-01-03T19:06:41.124Z,31.93
2018-01-03T19:09:09.434Z,33.43
2018-01-03T19:11:37.744Z,23.33
2018-01-03T19:14:06.764Z,39.20
2018-01-03T19:16:35.064Z,26.37
2018-01-03T19:19:03.462Z,23.27
2018-01-03T19:21:32.080Z,21.37
2018-01-03T19:24:00.527Z,14.77
2018-01-03T19:26:28.907Z,50.00
2018-01-03T19:28:57.236Z,21.53
2018-01-03T19:31:25.928Z,22.17
2018-01-03T19:33:54.360Z,14.27
2018-01-03T19:36:22.738Z,17.53
2018-01-03T19:38:51.037Z,14.10
2018-01-03T19:41:19.838Z,19.60
2018-01-03T19:43:49.237Z,16.03
2018-01-03T19:46:17.558Z,19.80
2018-01-03T19:48:45.912Z,18.80
2018-01-03T19:51:16.542Z,18.33
2018-01-03T19:53:44.894Z,22.63
2018-01-03T19:56:14.130Z,31.70
2018-01-03T19:58:42.581Z,10.80
2018-01-03T20:01:11.717Z,14.03
2018-01-03T20:03:40.169Z,14.90
2018-01-03T20:06:09.410Z,14.53
2018-01-03T20:08:39.385Z,19.80
2018-01-03T20:11:08.789Z,107.53
2018-01-03T20:13:37.484Z,22.67
2018-01-03T20:16:05.965Z,20.83
2018-01-03T20:18:34.285Z,17.70
2018-01-03T20:21:02.636Z,22.33
2018-01-03T20:23:32.754Z,37.10
2018-01-03T20:26:01.460Z,29.87
2018-01-03T20:28:30.584Z,24.57
2018-01-03T20:30:59.042Z,24.67
2018-01-03T20:33:28.377Z,53.10
2018-01-03T20:35:57.016Z,27.07
2018-01-03T20:38:25.602Z,26.90
2018-01-03T20:40:55.408Z,76.40
2018-01-03T20:43:25.013Z,42.20
2018-01-03T20:45:53.418Z,35.23
2018-01-03T20:48:33.521Z,17.47
2018-01-03T20:51:03.967Z,27.33
2018-01-03T20:53:33.477Z,25.73
2018-01-03T20:56:03.007Z,28.73
2018-01-03T20:58:33.107Z,41.93
2018-01-03T21:01:01.773Z,26.80
2018-01-03T21:03:31.113Z,22.57
2018-01-03T21:05:59.548Z,30.83
2018-01-03T21:08:28.778Z,85.37
2018-01-03T21:10:57.383Z,22.60
2018-01-03T21:13:27.080Z,29.87
2018-01-03T21:15:56.471Z,16.70
2018-01-03T21:18:26.596Z,20.93
2018-01-03T21:20:55.872Z,32.73
2018-01-03T21:23:24.794Z,34.20
2018-01-03T21:25:53.944Z,29.33
2018-01-03T21:28:22.675Z,36.47
2018-01-03T21:30:51.059Z,39.93
2018-01-03T21:33:20.377Z,37.80
2018-01-03T21:35:49.435Z,36.37
2018-01-03T21:38:17.794Z,36.70
2018-01-03T21:40:46.300Z,26.13
2018-01-03T21:43:14.706Z,22.80
2018-01-03T21:45:43.087Z,42.13
2018-01-03T21:48:12.232Z,26.00
2018-01-03T21:50:40.544Z,38.07
2018-01-03T21:53:10.673Z,49.93
2018-01-03T21:55:39.980Z,46.93
2018-01-03T21:58:08.674Z,36.97
2018-01-03T22:00:36.993Z,56.37
2018-01-03T22:03:06.273Z,46.13
2018-01-03T22:05:34.753Z,30.97
2018-01-03T22:08:03.090Z,26.50
2018-01-03T22:10:41.845Z,28.73
2018-01-03T22:13:10.937Z,15.70
2018-01-03T22:15:40.038Z,23.03
2018-01-03T22:18:09.076Z,25.07
2018-01-03T22:20:37.619Z,30.10
2018-01-03T22:23:06.683Z,33.00
2018-01-03T22:25:35.073Z,20.10
2018-01-03T22:28:03.300Z,36.67
2018-01-03T22:30:31.580Z,27.27
2018-01-03T22:32:59.860Z,29.50
2018-01-03T22:35:28.143Z,28.83
2018-01-03T22:37:56.391Z,38.03
2018-01-03T22:40:24.692Z,19.47
2018-01-03T22:42:53.022Z,24.80
2018-01-03T22:45:21.350Z,33.10
2018-01-03T22:47:49.618Z,40.03
2018-01-03T22:50:17.900Z,16.23
2018-01-03T22:52:47.989Z,28.17
2018-01-03T22:55:16.551Z,43.67
2018-01-03T22:57:44.913Z,30.60
2018-01-03T23:00:13.857Z,16.97
2018-01-03T23:02:42.300Z,23.33
2018-01-03T23:05:10.585Z,23.07
2018-01-03T23:07:39.670Z,35.07
2018-01-03T23:10:07.905Z,26.17
2018-01-03T23:12:36.204Z,25.03
2018-01-03T23:15:04.453Z,35.87
2018-01-03T23:17:33.491Z,30.23
2018-01-03T23:20:01.804Z,30.10
2018-01-03T23:22:30.140Z,38.30
2018-01-03T23:24:58.393Z,43.90
2018-01-03T23:27:26.691Z,36.47
2018-01-03T23:29:54.947Z,43.13
2018-01-03T23:32:23.298Z,34.90
2018-01-03T23:34:51.595Z,42.57
2018-01-03T23:37:19.958Z,48.90
2018-01-03T23:39:48.202Z,37.83
2018-01-03T23:42:16.527Z,38.03
2018-01-03T23:44:45.546Z,52.97
2018-01-03T23:47:13.860Z,52.93
2018-01-03T23:49:43.014Z,53.77
2018-01-03T23:52:11.271Z,40.63
2018-01-03T23:54:39.542Z,57.53
2018-01-03T23:57:08.584Z,42.60
2018-01-03T23:59:36.916Z,51.67
